AirNav   Pilot Hours Calculator
 
 1330 users online  

3LL4 Pillow Hill Airport
Spring Grove, Illinois, USA

GOING TO SPRING GROVE?


FAA INFORMATION EFFECTIVE 01 DECEMBER 2022

Location

FAA Identifier: 3LL4
Lat/Long: 42-26-50.0700N 088-12-05.3140W
42-26.834500N 088-12.088567W
42.4472417,-88.2014761
(estimated)
Elevation: 815 ft. / 248 m (estimated)
Variation: 01W (1985)
From city: 2 miles NE of SPRING GROVE, IL
Time zone: UTC -6 (UTC -5 during Daylight Saving Time)
Zip code: 60081

Airport Operations

Airport use: Private use. Permission required prior to landing
Activation date: 05/1969
Control tower: no
ARTCC: CHICAGO CENTER
FSS: KANKAKEE FLIGHT SERVICE STATION
Attendance: UNATNDD
Wind indicator: yes
Segmented circle: no

Airport Communications

WX ASOS at UGN (15 nm E): PHONE 847-782-0876
WX ASOS at ENW (15 nm NE): PHONE 262-652-7730
WX AWOS-3 at BUU (15 nm N): 125.275 (262-757-0907)

Nearby radio navigation aids

VOR radial/distance  VOR name  Freq  Var
OBKr323/17.5NORTHBROOK VOR/DME113.0002W
DPAr009/34.1DUPAGE VOR/DME108.4002E

Airport Services

Airframe service: NONE
Powerplant service: NONE

Runway Information

Runway N/S

Dimensions: 2000 x 100 ft. / 610 x 30 m
Surface: turf
RUNWAY N  RUNWAY S
Traffic pattern: leftleft

Airport Ownership and Management from official FAA records

Ownership: Privately-owned
Owner: SAMUEL HUTCHINSON
28676 W GOLF VIEW DR
SPRING GROVE, IL 60081-9122
Phone 847-587-0535

Airport Operational Statistics

Aircraft based on the field: 1
Single engine airplanes: 1
    

Additional Remarks

NO WINTER OPERATIONS OR NIGHT OPERATIONS.
FOR CD CTC CHICAGO APCH AT 847-289-0926.

Instrument Procedures

There are no published instrument procedures at 3LL4.

Some nearby airports with instrument procedures:

10C - Galt Field Airport (8 nm W)
C81 - Campbell Airport (9 nm SE)
C02 - Grand Geneva Resort Airport (13 nm NW)
KUGN - Waukegan National Airport (15 nm E)
KENW - Kenosha Regional Airport (15 nm NE)
KBUU - Burlington Municipal Airport (15 nm N)
3CK - Lake in the Hills Airport (15 nm S)
 
Loc | Ops | Rwys | IFR | FBO | Links
Com | Nav | Svcs | Stats | Notes
Area around 3LL4 (Pillow Hill Airport)
 
Road maps at: MapQuest Bing Google
 
Aerial photo
No photo
 
Sectional chart

 
Airport distance calculator
Flying to Pillow Hill Airport? Find the distance to fly.

From to 3LL4

Sunrise and sunset
Times for 07-Dec-2022
 Local
(UTC-6)
 Zulu
(UTC)
Morning civil twilight06:3812:38
Sunrise07:1013:10
Sunset16:1922:19
Evening civil twilight16:5122:51

Current date and time
Zulu (UTC)  07-Dec-2022 14:05:44
Local (UTC-6)  07-Dec-2022 08:05:44
 
METAR
KBUU 
15nm N 
071335Z AUTO 00000KT M1/4SM OVC002 M02/M02 A3020 RMK AO2 T10181018 PWINO
KUGN 
15nm E 
071355Z 29004KT 1/4SM FG OVC002 02/02 A3020 RMK AO2 SLP235 T00220017
KENW 
15nm NE 
071353Z 28005KT 1/4SM FG VV002 02/01 A3021 RMK AO2 SLP236 T00220011
K57C 
22nm N 
071355Z AUTO 00000KT 1/2SM FZFG M02/M02 A3020 RMK AO2 T10211021
KPWK 
24nm SE 
071352Z 00000KT 1 1/2SM BR OVC003 03/03 A3022 RMK AO2 SLP237 T00330028
KRAC 
26nm NE 
071353Z AUTO 29008KT 1/4SM FG VV002 02/01 A3022 RMK AO2 SLP239 T00170006
K06C 
28nm S 
071355Z AUTO 00000KT 1/2SM OVC003 03/03 A3020 RMK AO2 T00250025
TAF
KENW 
15nm NE 
071125Z 0712/0812 00000KT 1/4SM FG OVC002 FM071500 31004KT P6SM OVC007 FM071700 33005KT P6SM BKN017 FM080000 34005KT P6SM SCT027 FM080800 VRB03KT 3SM BR BKN021
NOTAMs
Click for the latest NOTAMs
NOTAMs are issued by the DoD/FAA and will open in a separate window not controlled by AirNav.

 

 
 

Would you like to see your business listed on this page?

 If your business provides an interesting product or service to pilots, flight crews, aircraft, or users of the Pillow Hill Airport, you should consider listing it here.  To start the listing process, click on the button below
 
Add a business
 

Other Pages about Pillow Hill Airport

Update a link
 
Copyright © AirNav, LLC. All rights reserved. Privacy Policy  Contact